createdAt,value
2019-02-09T00:01:46.669Z,5.53
2019-02-09T00:04:15.701Z,5.87
2019-02-09T00:06:44.734Z,6.00
2019-02-09T00:09:13.746Z,6.50
2019-02-09T00:11:42.697Z,8.23
2019-02-09T00:14:11.695Z,7.93
2019-02-09T00:16:40.660Z,8.50
2019-02-09T00:19:09.679Z,7.70
2019-02-09T00:21:38.641Z,12.40
2019-02-09T00:24:07.648Z,6.50
2019-02-09T00:26:37.016Z,6.23
2019-02-09T00:29:06.104Z,6.53
2019-02-09T00:31:35.257Z,4.60
2019-02-09T00:34:04.352Z,7.70
2019-02-09T00:36:43.532Z,5.60
2019-02-09T00:39:12.432Z,6.50
2019-02-09T00:41:41.470Z,7.93
2019-02-09T00:44:10.459Z,9.77
2019-02-09T00:46:39.486Z,5.47
2019-02-09T00:49:08.516Z,5.70
2019-02-09T00:51:37.561Z,7.83
2019-02-09T00:54:06.605Z,8.00
2019-02-09T00:56:35.599Z,5.83
2019-02-09T00:59:05.232Z,8.50
2019-02-09T01:01:34.237Z,7.50
2019-02-09T01:04:03.350Z,5.23
2019-02-09T01:06:32.492Z,8.63
2019-02-09T01:09:01.556Z,11.43
2019-02-09T01:11:30.572Z,7.33
2019-02-09T01:14:00.722Z,7.17
2019-02-09T01:16:29.732Z,6.50
2019-02-09T01:18:58.785Z,6.90
2019-02-09T01:21:27.733Z,4.73
2019-02-09T01:23:56.756Z,4.90
2019-02-09T01:26:25.854Z,6.70
2019-02-09T01:28:54.905Z,3.67
2019-02-09T01:31:23.888Z,7.00
2019-02-09T01:33:52.940Z,7.87
2019-02-09T01:36:21.886Z,6.70
2019-02-09T01:38:50.915Z,3.80
2019-02-09T01:41:19.912Z,7.53
2019-02-09T01:43:48.940Z,4.60
2019-02-09T01:46:17.955Z,3.70
2019-02-09T01:48:46.931Z,5.80
2019-02-09T01:51:15.975Z,10.80
2019-02-09T01:53:44.968Z,9.70
2019-02-09T01:56:13.851Z,9.03
2019-02-09T01:58:42.834Z,7.67
2019-02-09T02:01:12.215Z,10.60
2019-02-09T02:03:41.096Z,8.17
2019-02-09T02:06:10.122Z,16.10
2019-02-09T02:08:39.216Z,9.63
2019-02-09T02:11:08.264Z,10.33
2019-02-09T02:13:37.306Z,6.80
2019-02-09T02:16:09.086Z,7.90
2019-02-09T02:18:38.119Z,8.87
2019-02-09T02:21:07.136Z,6.50
2019-02-09T02:23:36.143Z,4.73
2019-02-09T02:26:05.568Z,18.27
2019-02-09T02:28:34.512Z,9.10
2019-02-09T02:31:03.725Z,6.20
2019-02-09T02:33:32.758Z,7.40
2019-02-09T02:36:01.745Z,7.13
2019-02-09T02:38:30.713Z,10.20
2019-02-09T02:40:59.681Z,4.27
2019-02-09T02:43:28.764Z,5.30
2019-02-09T02:45:57.774Z,9.10
2019-02-09T02:48:26.856Z,15.23
2019-02-09T02:50:55.890Z,11.30
2019-02-09T02:53:24.762Z,6.30
2019-02-09T02:55:53.824Z,5.17
2019-02-09T02:58:22.716Z,6.30
2019-02-09T03:00:51.779Z,11.93
2019-02-09T03:03:20.644Z,8.47
2019-02-09T03:05:49.604Z,11.17
2019-02-09T03:08:18.629Z,7.17
2019-02-09T03:10:47.613Z,8.30
2019-02-09T03:13:16.637Z,8.13
2019-02-09T03:15:45.676Z,4.53
2019-02-09T03:18:14.687Z,5.57
2019-02-09T03:20:43.723Z,5.10
2019-02-09T03:23:12.733Z,4.63
2019-02-09T03:25:41.757Z,4.00
2019-02-09T03:28:10.781Z,2.43
2019-02-09T03:30:47.972Z,6.30
2019-02-09T03:33:10.465Z,3.30
2019-02-09T03:35:39.467Z,3.27
2019-02-09T03:38:08.600Z,6.50
2019-02-09T03:40:37.623Z,10.40
2019-02-09T03:43:06.689Z,5.87
2019-02-09T03:45:35.745Z,4.47
2019-02-09T03:48:05.389Z,4.43
2019-02-09T03:50:34.440Z,5.33
2019-02-09T03:53:03.468Z,4.27
2019-02-09T03:55:32.569Z,3.93
2019-02-09T03:58:01.641Z,6.30
2019-02-09T04:00:31.209Z,3.20
2019-02-09T04:03:00.815Z,4.83
2019-02-09T04:05:29.799Z,3.20
2019-02-09T04:07:58.880Z,4.17
2019-02-09T04:10:28.433Z,4.90
2019-02-09T04:12:57.477Z,8.07
2019-02-09T04:15:26.749Z,6.43
2019-02-09T04:17:55.985Z,5.57
2019-02-09T04:20:25.643Z,3.77
2019-02-09T04:22:55.288Z,6.17
2019-02-09T04:25:24.826Z,4.97
2019-02-09T04:27:54.157Z,3.73
2019-02-09T04:30:25.187Z,5.53
2019-02-09T04:32:54.429Z,3.57
2019-02-09T04:35:23.503Z,4.93
2019-02-09T04:37:52.961Z,3.20
2019-02-09T04:40:27.092Z,2.30
2019-02-09T04:42:56.408Z,3.17
2019-02-09T04:45:25.733Z,2.80
2019-02-09T04:47:54.708Z,3.00
2019-02-09T04:50:23.863Z,4.80
2019-02-09T04:52:53.191Z,2.27
2019-02-09T04:55:23.229Z,3.27
2019-02-09T04:57:52.254Z,3.13
2019-02-09T05:00:23.299Z,3.70
2019-02-09T05:02:52.623Z,2.83
2019-02-09T05:05:21.662Z,3.70
2019-02-09T05:07:51.000Z,3.43
2019-02-09T05:10:20.780Z,2.37
2019-02-09T05:12:50.082Z,3.60
2019-02-09T05:15:19.509Z,5.97
2019-02-09T05:17:48.500Z,2.60
2019-02-09T05:20:19.032Z,1.50
2019-02-09T05:22:48.055Z,1.90
2019-02-09T05:25:18.235Z,9.40
2019-02-09T05:27:47.230Z,1.80
2019-02-09T05:30:18.433Z,2.10
2019-02-09T05:32:47.476Z,2.40
2019-02-09T05:35:16.629Z,2.13
2019-02-09T05:37:45.676Z,2.70
2019-02-09T05:40:16.645Z,2.30
2019-02-09T05:42:45.706Z,2.00
2019-02-09T05:45:17.301Z,2.17
2019-02-09T05:47:46.443Z,1.50
2019-02-09T05:50:16.932Z,1.47
2019-02-09T05:52:46.120Z,1.70
2019-02-09T05:55:15.701Z,1.90
2019-02-09T05:57:44.946Z,2.27
2019-02-09T06:00:29.045Z,1.70
2019-02-09T06:02:58.049Z,1.40
2019-02-09T06:05:27.087Z,1.37
2019-02-09T06:08:08.228Z,1.10
2019-02-09T06:10:37.180Z,1.40
2019-02-09T06:13:06.223Z,1.10
2019-02-09T06:15:35.533Z,1.50
2019-02-09T06:18:05.142Z,1.60
2019-02-09T06:20:34.188Z,1.60
2019-02-09T06:23:03.305Z,1.40
2019-02-09T06:25:51.428Z,1.50
2019-02-09T06:28:20.345Z,1.50
2019-02-09T06:30:49.394Z,1.20
2019-02-09T06:33:18.311Z,1.60
2019-02-09T06:35:47.332Z,1.30
2019-02-09T06:38:16.351Z,1.20
2019-02-09T06:40:45.334Z,1.37
2019-02-09T06:43:14.385Z,1.30
2019-02-09T06:45:43.327Z,1.43
2019-02-09T06:48:21.986Z,1.93
2019-02-09T06:50:51.018Z,1.50
2019-02-09T06:53:20.063Z,2.10
2019-02-09T06:55:49.066Z,1.50
2019-02-09T06:58:18.078Z,1.57
2019-02-09T07:00:47.092Z,1.50
2019-02-09T07:03:16.181Z,1.40
2019-02-09T07:05:45.210Z,1.57
2019-02-09T07:08:14.283Z,1.53
2019-02-09T07:10:43.257Z,1.17
2019-02-09T07:13:12.280Z,1.13
2019-02-09T07:15:41.277Z,1.00
2019-02-09T07:18:16.539Z,1.23
2019-02-09T07:20:45.530Z,1.20
2019-02-09T07:23:14.540Z,1.33
2019-02-09T07:25:43.563Z,1.30
2019-02-09T07:28:12.600Z,1.30
2019-02-09T07:30:41.579Z,1.20
2019-02-09T07:33:10.671Z,1.20
2019-02-09T07:35:39.583Z,1.10
2019-02-09T07:38:08.664Z,1.03
2019-02-09T07:40:37.608Z,1.30
2019-02-09T07:43:06.714Z,1.33
2019-02-09T07:45:35.751Z,1.30
2019-02-09T07:48:05.572Z,1.33
2019-02-09T07:50:34.573Z,1.27
2019-02-09T07:53:06.340Z,1.40
2019-02-09T07:55:35.333Z,1.23
2019-02-09T07:58:23.447Z,1.60
2019-02-09T08:00:52.506Z,1.40
2019-02-09T08:03:21.547Z,1.43
2019-02-09T08:05:50.565Z,2.50
2019-02-09T08:08:20.509Z,1.20
2019-02-09T08:10:49.508Z,1.17
2019-02-09T08:13:18.524Z,1.63
2019-02-09T08:15:47.624Z,1.30
2019-02-09T08:18:16.619Z,1.43
2019-02-09T08:20:45.674Z,1.30
2019-02-09T08:23:15.306Z,2.07
2019-02-09T08:25:44.336Z,1.00
2019-02-09T08:28:13.667Z,1.23
2019-02-09T08:30:44.268Z,1.30
2019-02-09T08:33:13.328Z,1.33
2019-02-09T08:35:42.760Z,1.13
2019-02-09T08:38:13.152Z,1.37
2019-02-09T08:40:42.184Z,1.70
2019-02-09T08:43:11.219Z,1.10
2019-02-09T08:45:40.143Z,1.50
2019-02-09T08:48:09.282Z,1.43
2019-02-09T08:50:47.480Z,1.40
2019-02-09T08:53:16.508Z,1.50
2019-02-09T08:55:45.573Z,1.60
2019-02-09T08:58:33.737Z,1.47
2019-02-09T09:01:03.075Z,1.70
2019-02-09T09:03:33.001Z,1.30
2019-02-09T09:06:02.016Z,1.53
2019-02-09T09:08:31.068Z,1.60
2019-02-09T09:11:01.404Z,1.80
2019-02-09T09:13:30.667Z,1.30
2019-02-09T09:16:01.093Z,1.73
2019-02-09T09:18:30.040Z,1.60
2019-02-09T09:21:01.796Z,1.50
2019-02-09T09:23:30.839Z,1.67
2019-02-09T09:25:59.861Z,1.63
2019-02-09T09:28:28.902Z,1.63
2019-02-09T09:30:57.905Z,1.70
2019-02-09T09:33:46.013Z,1.30
2019-02-09T09:36:15.416Z,1.87
2019-02-09T09:38:52.124Z,1.53
2019-02-09T09:41:21.160Z,1.73
2019-02-09T09:43:50.188Z,1.20
2019-02-09T09:46:19.388Z,1.50
2019-02-09T09:48:48.400Z,1.27
2019-02-09T09:51:17.507Z,1.57
2019-02-09T09:53:46.531Z,1.77
2019-02-09T09:56:15.549Z,1.60
2019-02-09T09:59:04.536Z,1.70
2019-02-09T10:01:33.482Z,1.53
2019-02-09T10:04:02.501Z,1.50
2019-02-09T10:06:31.532Z,1.67
2019-02-09T10:09:00.561Z,1.70
2019-02-09T10:11:29.596Z,1.57
2019-02-09T10:13:58.521Z,1.70
2019-02-09T10:16:27.560Z,1.73
2019-02-09T10:18:56.474Z,1.97
2019-02-09T10:21:25.565Z,1.23
2019-02-09T10:23:54.564Z,1.17
2019-02-09T10:26:23.585Z,1.83
2019-02-09T10:28:52.679Z,1.57
2019-02-09T10:31:21.569Z,1.40
2019-02-09T10:33:50.517Z,1.80
2019-02-09T10:36:19.558Z,2.00
2019-02-09T10:38:48.504Z,1.73
2019-02-09T10:41:17.524Z,1.70
2019-02-09T10:43:46.540Z,1.60
2019-02-09T10:46:15.572Z,1.70
2019-02-09T10:48:44.519Z,1.63
2019-02-09T10:51:13.539Z,1.30
2019-02-09T10:53:42.558Z,2.57
2019-02-09T10:56:11.578Z,1.83
2019-02-09T10:58:40.679Z,1.77
2019-02-09T11:01:16.118Z,1.20
2019-02-09T11:03:45.230Z,1.30
2019-02-09T11:06:14.272Z,1.30
2019-02-09T11:08:43.309Z,1.13
2019-02-09T11:11:12.366Z,1.20
2019-02-09T11:13:41.402Z,1.03
2019-02-09T11:16:10.452Z,1.30
2019-02-09T11:18:39.496Z,1.50
2019-02-09T11:21:08.512Z,1.47
2019-02-09T11:23:37.536Z,1.20
2019-02-09T11:26:06.581Z,1.00
2019-02-09T11:28:35.542Z,1.47
2019-02-09T11:31:04.745Z,1.30
2019-02-09T11:33:33.777Z,1.60
2019-02-09T11:36:02.796Z,1.27
2019-02-09T11:38:31.828Z,1.30
2019-02-09T11:41:01.213Z,1.80
2019-02-09T11:43:30.545Z,1.00
2019-02-09T11:45:59.542Z,1.40
2019-02-09T11:48:28.554Z,1.30
2019-02-09T11:50:57.525Z,1.47
2019-02-09T11:53:26.568Z,2.20
2019-02-09T11:55:57.047Z,1.67
2019-02-09T11:58:26.076Z,1.70
2019-02-09T12:00:55.107Z,1.70
2019-02-09T12:03:24.180Z,1.17
2019-02-09T12:05:53.196Z,1.57
2019-02-09T12:08:22.200Z,1.90
2019-02-09T12:10:51.261Z,1.20
2019-02-09T12:13:20.355Z,1.27
2019-02-09T12:15:49.364Z,1.27
2019-02-09T12:18:19.808Z,1.20
2019-02-09T12:20:48.744Z,1.67
2019-02-09T12:23:17.771Z,1.20
2019-02-09T12:25:46.775Z,1.47
2019-02-09T12:28:15.824Z,1.13
2019-02-09T12:30:45.229Z,1.40
2019-02-09T12:33:22.524Z,1.17
2019-02-09T12:35:44.997Z,1.97
2019-02-09T12:38:14.054Z,1.13
2019-02-09T12:40:43.038Z,1.90
2019-02-09T12:43:12.060Z,1.57
2019-02-09T12:45:41.998Z,1.40
2019-02-09T12:48:11.083Z,1.60
2019-02-09T12:50:40.552Z,1.37
2019-02-09T12:53:10.262Z,1.40
2019-02-09T12:55:39.309Z,1.43
2019-02-09T12:58:08.359Z,1.57
2019-02-09T13:00:37.922Z,1.47
2019-02-09T13:03:10.720Z,1.83
2019-02-09T13:05:39.772Z,1.67
2019-02-09T13:08:08.828Z,1.80
2019-02-09T13:10:37.911Z,1.70
2019-02-09T13:13:06.967Z,1.83
2019-02-09T13:15:36.018Z,1.43
2019-02-09T13:18:05.881Z,1.30
2019-02-09T13:20:35.275Z,1.80
2019-02-09T13:23:05.748Z,2.00
2019-02-09T13:25:34.774Z,1.50
2019-02-09T13:28:04.406Z,1.77
2019-02-09T13:30:33.604Z,1.80
2019-02-09T13:33:02.638Z,1.77
2019-02-09T13:35:39.958Z,1.50
2019-02-09T13:38:08.977Z,1.53
2019-02-09T13:40:38.008Z,1.57
2019-02-09T13:43:07.552Z,1.80
2019-02-09T13:45:39.110Z,2.00
2019-02-09T13:48:09.034Z,1.93
2019-02-09T13:50:38.847Z,1.87
2019-02-09T13:53:09.059Z,1.70
2019-02-09T13:55:38.068Z,2.07
2019-02-09T13:58:07.326Z,1.80
2019-02-09T14:00:36.922Z,1.40
2019-02-09T14:03:06.879Z,1.77
2019-02-09T14:05:35.936Z,1.70
2019-02-09T14:08:05.812Z,1.90
2019-02-09T14:10:34.875Z,1.60
2019-02-09T14:13:04.107Z,2.27
2019-02-09T14:15:33.903Z,2.10
2019-02-09T14:18:05.673Z,1.53
2019-02-09T14:20:34.810Z,1.80
2019-02-09T14:23:04.309Z,1.60
2019-02-09T14:25:33.463Z,2.20
2019-02-09T14:28:03.215Z,2.07
2019-02-09T14:30:33.290Z,2.43
2019-02-09T14:33:03.957Z,2.57
2019-02-09T14:35:32.936Z,2.00
2019-02-09T14:38:02.252Z,1.80
2019-02-09T14:40:32.567Z,2.10
2019-02-09T14:43:02.136Z,1.80
2019-02-09T14:45:33.281Z,1.60
2019-02-09T14:48:02.326Z,1.80
2019-02-09T14:50:31.367Z,2.03
2019-02-09T14:53:00.580Z,1.73
2019-02-09T14:55:31.494Z,2.03
2019-02-09T14:58:00.601Z,1.73
2019-02-09T15:00:35.732Z,1.80
2019-02-09T15:03:06.060Z,2.00
2019-02-09T15:05:35.168Z,2.07
2019-02-09T15:08:05.104Z,2.13
2019-02-09T15:10:34.183Z,2.47
2019-02-09T15:13:03.215Z,2.10
2019-02-09T15:15:41.231Z,1.67
2019-02-09T15:18:10.699Z,2.00
2019-02-09T15:20:42.955Z,2.07
2019-02-09T15:23:12.006Z,1.97
2019-02-09T15:25:41.079Z,2.03
2019-02-09T15:28:12.555Z,2.00
2019-02-09T15:30:40.872Z,1.53
2019-02-09T15:33:09.923Z,2.10
2019-02-09T15:35:38.947Z,2.30
2019-02-09T15:38:08.012Z,1.40
2019-02-09T15:40:37.049Z,1.60
2019-02-09T15:43:07.875Z,1.70
2019-02-09T15:45:36.933Z,1.77
2019-02-09T15:48:06.653Z,2.00
2019-02-09T15:50:35.699Z,1.70
2019-02-09T15:53:04.767Z,1.83
2019-02-09T15:55:33.798Z,1.40
2019-02-09T15:58:02.821Z,2.33
2019-02-09T16:00:31.885Z,1.77
2019-02-09T16:03:01.244Z,2.20
2019-02-09T16:05:30.543Z,1.93
2019-02-09T16:07:59.568Z,1.50
2019-02-09T16:10:28.683Z,1.83
2019-02-09T16:12:57.739Z,1.77
2019-02-09T16:15:27.387Z,1.83
2019-02-09T16:17:56.431Z,2.30
2019-02-09T16:20:26.044Z,2.20
2019-02-09T16:22:55.071Z,2.03
2019-02-09T16:25:24.631Z,2.23
2019-02-09T16:27:53.668Z,1.57
2019-02-09T16:30:24.385Z,2.03
2019-02-09T16:32:53.811Z,2.53
2019-02-09T16:35:23.444Z,1.70
2019-02-09T16:37:52.975Z,1.73
2019-02-09T16:40:24.718Z,1.50
2019-02-09T16:42:53.797Z,2.27
2019-02-09T16:45:25.380Z,1.50
2019-02-09T16:47:54.516Z,1.87
2019-02-09T16:50:23.584Z,1.93
2019-02-09T16:52:52.604Z,2.17
2019-02-09T16:55:21.689Z,2.00
2019-02-09T16:57:51.013Z,1.90
2019-02-09T17:00:32.393Z,1.70
2019-02-09T17:03:01.595Z,1.90
2019-02-09T17:05:30.623Z,1.90
2019-02-09T17:07:59.644Z,1.73
2019-02-09T17:10:28.667Z,1.90
2019-02-09T17:12:57.695Z,1.77
2019-02-09T17:15:26.772Z,1.83
2019-02-09T17:17:55.788Z,1.90
2019-02-09T17:20:25.196Z,1.90
2019-02-09T17:22:54.513Z,1.50
2019-02-09T17:25:23.763Z,1.97
2019-02-09T17:27:52.830Z,2.10
2019-02-09T17:30:26.125Z,1.77
2019-02-09T17:32:55.201Z,2.10
2019-02-09T17:35:43.308Z,1.87
2019-02-09T17:38:12.328Z,1.77
2019-02-09T17:40:44.071Z,2.10
2019-02-09T17:43:13.280Z,1.80
2019-02-09T17:46:13.968Z,2.53
2019-02-09T17:48:42.964Z,1.70
2019-02-09T17:51:11.968Z,2.07
2019-02-09T17:53:41.012Z,2.30
2019-02-09T17:56:10.040Z,1.90
2019-02-09T17:58:38.964Z,1.90
2019-02-09T18:01:12.693Z,1.53
2019-02-09T18:03:41.656Z,1.70
2019-02-09T18:06:10.989Z,1.93
2019-02-09T18:08:40.059Z,1.90
2019-02-09T18:11:09.150Z,1.60
2019-02-09T18:13:38.124Z,2.10
2019-02-09T18:16:07.139Z,2.10
2019-02-09T18:18:36.080Z,1.90
2019-02-09T18:21:05.098Z,1.67
2019-02-09T18:23:34.303Z,1.63
2019-02-09T18:26:03.320Z,1.70
2019-02-09T18:28:32.513Z,1.70
2019-02-09T18:31:01.531Z,1.80
2019-02-09T18:33:30.521Z,2.57
2019-02-09T18:35:59.528Z,2.23
2019-02-09T18:38:28.609Z,1.90
2019-02-09T18:40:57.611Z,1.47
2019-02-09T18:43:26.659Z,2.10
2019-02-09T18:45:57.777Z,1.57
2019-02-09T18:48:26.388Z,1.27
2019-02-09T18:51:01.287Z,1.80
2019-02-09T18:53:30.265Z,1.50
2019-02-09T18:55:59.263Z,1.57
2019-02-09T18:58:28.274Z,1.87
2019-02-09T19:00:57.295Z,2.00
2019-02-09T19:03:26.321Z,2.03
2019-02-09T19:05:55.347Z,1.93
2019-02-09T19:08:24.381Z,1.60
2019-02-09T19:10:53.524Z,1.90
2019-02-09T19:13:22.567Z,2.17
2019-02-09T19:15:51.568Z,2.20
2019-02-09T19:18:20.523Z,1.77
2019-02-09T19:20:52.787Z,5.50
2019-02-09T19:23:21.759Z,1.60
2019-02-09T19:25:51.724Z,2.30
2019-02-09T19:28:20.717Z,1.73
2019-02-09T19:30:49.951Z,1.80
2019-02-09T19:33:19.164Z,1.90
2019-02-09T19:35:48.165Z,1.97
2019-02-09T19:38:17.212Z,2.10
2019-02-09T19:40:46.229Z,1.97
2019-02-09T19:43:15.241Z,1.80
2019-02-09T19:45:44.355Z,1.83
2019-02-09T19:48:13.386Z,1.93
2019-02-09T19:50:49.787Z,2.27
2019-02-09T19:53:18.800Z,1.80
2019-02-09T19:55:47.796Z,2.10
2019-02-09T19:58:16.885Z,2.10
2019-02-09T20:00:46.081Z,2.13
2019-02-09T20:03:15.109Z,1.87
2019-02-09T20:05:44.475Z,1.60
2019-02-09T20:08:13.828Z,1.60
2019-02-09T20:10:43.212Z,2.00
2019-02-09T20:13:12.335Z,1.93
2019-02-09T20:15:41.975Z,1.37
2019-02-09T20:18:10.994Z,2.00
2019-02-09T20:20:46.824Z,1.67
2019-02-09T20:23:11.116Z,1.30
2019-02-09T20:25:40.120Z,1.27
2019-02-09T20:28:09.462Z,1.43
2019-02-09T20:30:38.532Z,1.70
2019-02-09T20:33:08.316Z,1.83
2019-02-09T20:35:37.342Z,1.10
2019-02-09T20:38:06.912Z,2.20
2019-02-09T20:40:40.936Z,1.60
2019-02-09T20:43:11.691Z,1.70
2019-02-09T20:45:40.650Z,1.57
2019-02-09T20:48:10.872Z,1.67
2019-02-09T20:50:39.896Z,1.83
2019-02-09T20:53:08.922Z,1.70
2019-02-09T20:55:38.147Z,1.30
2019-02-09T20:58:09.318Z,1.40
2019-02-09T21:00:38.381Z,1.57
2019-02-09T21:03:07.384Z,2.23
2019-02-09T21:05:37.043Z,1.70
2019-02-09T21:08:06.882Z,1.20
2019-02-09T21:10:36.572Z,1.40
2019-02-09T21:13:06.443Z,1.40
2019-02-09T21:15:35.702Z,2.50
2019-02-09T21:18:05.369Z,2.20
2019-02-09T21:20:34.567Z,2.00
2019-02-09T21:23:03.649Z,1.67
2019-02-09T21:25:34.179Z,1.60
2019-02-09T21:28:03.207Z,1.77
2019-02-09T21:30:32.243Z,2.13
2019-02-09T21:33:01.244Z,2.33
2019-02-09T21:35:30.635Z,2.07
2019-02-09T21:37:59.825Z,2.00
2019-02-09T21:40:29.352Z,1.30
2019-02-09T21:42:59.248Z,1.80
2019-02-09T21:45:28.774Z,3.03
2019-02-09T21:47:57.772Z,1.70
2019-02-09T21:50:29.135Z,1.87
2019-02-09T21:52:58.220Z,1.83
2019-02-09T21:55:27.236Z,1.63
2019-02-09T21:57:56.196Z,1.63
2019-02-09T22:00:33.806Z,1.97
2019-02-09T22:03:03.005Z,1.70
2019-02-09T22:05:32.019Z,1.47
2019-02-09T22:08:00.962Z,2.07
2019-02-09T22:10:33.939Z,1.50
2019-02-09T22:13:00.819Z,1.77
2019-02-09T22:15:37.989Z,1.70
2019-02-09T22:18:01.043Z,1.83
2019-02-09T22:20:30.072Z,1.67
2019-02-09T22:22:59.176Z,1.80
2019-02-09T22:25:28.240Z,1.90
2019-02-09T22:27:57.418Z,2.67
2019-02-09T22:30:27.670Z,2.40
2019-02-09T22:32:56.924Z,2.37
2019-02-09T22:35:26.810Z,2.43
2019-02-09T22:37:56.481Z,2.50
2019-02-09T22:40:30.660Z,1.93
2019-02-09T22:42:59.667Z,1.80
2019-02-09T22:45:30.117Z,1.87
2019-02-09T22:48:01.855Z,2.27
2019-02-09T22:50:33.282Z,2.50
2019-02-09T22:53:04.725Z,2.10
2019-02-09T22:55:36.614Z,2.23
2019-02-09T22:58:09.055Z,2.20
2019-02-09T23:00:59.416Z,2.70
2019-02-09T23:03:34.775Z,2.50
2019-02-09T23:06:36.432Z,2.33
2019-02-09T23:09:08.188Z,4.00
2019-02-09T23:11:37.220Z,3.33
2019-02-09T23:14:06.248Z,2.60
2019-02-09T23:16:35.276Z,3.83
2019-02-09T23:19:04.819Z,3.63
2019-02-09T23:21:33.832Z,4.90
2019-02-09T23:24:02.865Z,4.40
2019-02-09T23:26:31.913Z,2.73
2019-02-09T23:29:00.938Z,5.00
2019-02-09T23:31:29.956Z,4.80
2019-02-09T23:33:58.977Z,4.40
2019-02-09T23:36:27.972Z,4.80
2019-02-09T23:38:56.935Z,4.73
2019-02-09T23:41:25.876Z,5.50
2019-02-09T23:43:54.816Z,3.33
2019-02-09T23:46:23.880Z,6.23
2019-02-09T23:48:52.837Z,4.33
2019-02-09T23:51:21.952Z,6.47
2019-02-09T23:53:51.076Z,3.23
2019-02-09T23:56:20.008Z,4.30
2019-02-09T23:58:49.109Z,4.17
